• Join FlightAware (Why Join?)
  • Login
  • US Flag 
09:31PM EST


 

Airport Tracker/Info


-or-


 

Live Flight TrackerFlight Track Log ✈ N700QA ✈ 08-Nov-2013 ✈ KLAX - KLAS

Flight Track Log - Related Links

Times and Time Zones

All times are in EST time to prevent confusion due to time zone crossing. See the N700QA flight status page for this flight to view local times or setup timezone preferences in your user account.

Time Position Orientation Groundspeed Altitude Reporting Facility
EST Latitude Longitude Course Direction KTS MPH feet Rate Location/Type
06:22PM 33.9328 -118.4428 248° West 201 231 1,500  Level Los Angeles Center
06:23PM 33.9078 -118.5167 248° West 242 278 3,800 2,580 Climbing Los Angeles Center
06:24PM 33.8492 -118.5436 201° Southwest 252 290 6,900 2,580 Climbing Los Angeles Center
06:25PM 33.8567 -118.4700 83° East 266 306 9,200 2,220 Climbing Los Angeles Center
06:26PM 33.9350 -118.4572 North 284 327 11,500 2,160 Climbing Los Angeles Center
06:27PM 33.9794 -118.3706 58° Northeast 302 348 13,700 1,500 Climbing Los Angeles Center
06:28PM 34.0244 -118.2764 60° Northeast 320 368 14,700 1,080 Climbing Los Angeles Center
06:29PM 34.0817 -118.1786 55° Northeast 349 402 16,200 1,380 Climbing Los Angeles Center
06:30PM 34.1489 -118.0567 56° Northeast 362 417 17,900 1,320 Climbing Los Angeles Center
06:31PM 34.2072 -117.9544 55° Northeast 367 422 19,000 480 Climbing Los Angeles Center
06:32PM 34.2667 -117.8483 56° Northeast 378 435 19,000 60 Level Los Angeles Center
06:33PM 34.3339 -117.7267 56° Northeast 366 421 19,200 420 Climbing Los Angeles Center
06:34PM 34.3856 -117.6378 55° Northeast 372 428 19,900 720 Climbing Los Angeles Center
06:35PM 34.4444 -117.5300 56° Northeast 384 442 20,800 480 Climbing Los Angeles Center
06:36PM 34.5147 -117.4022 56° Northeast 382 440 21,000 300 Climbing Los Angeles Center
06:37PM 34.5722 -117.2992 56° Northeast 374 430 21,500 480 Climbing Los Angeles Center
06:38PM 34.6272 -117.1975 57° Northeast 366 421 22,000 180 Climbing Los Angeles Center
06:39PM 34.6794 -117.1011 57° Northeast 349 402 21,900 -180 Descending Los Angeles Center
06:41PM 34.7317 -117.0064 56° Northeast 342 394 21,700 -360 Descending Los Angeles Center
06:42PM 34.8042 -116.8717 57° Northeast 342 394 21,100 -360 Descending Los Angeles Center
06:43PM 34.8561 -116.7764 56° Northeast 340 391 21,000 -60 Descending Los Angeles Center
06:44PM 34.9064 -116.6825 57° Northeast 334 384 21,000  Level Los Angeles Center
06:45PM 34.9592 -116.5883 56° Northeast 338 389 21,000  Level Los Angeles Center
06:46PM 35.0236 -116.5033 47° Northeast 341 392 21,000  Level Los Angeles Center
06:47PM 35.1033 -116.4053 45° Northeast 341 392 21,000  Level Los Angeles Center
06:48PM 35.1714 -116.3178 46° Northeast 351 404 21,100  Climbing Los Angeles Center
06:49PM 35.2497 -116.2233 45° Northeast 377 434 21,100 -60 Level Los Angeles Center
06:50PM 35.3233 -116.1267 47° Northeast 389 448 21,000 -840 Descending Los Angeles Center
06:51PM 35.3981 -116.0336 45° Northeast 385 443 19,400 -2,040 Descending Los Angeles Center
06:52PM 35.4867 -115.9239 45° Northeast 381 438 16,900 -2,280 Descending Los Angeles Center
06:52PM 35.5253 -115.8789 43° Northeast 377 434 15,800 -2,040 Descending Los Angeles Center
06:53PM 35.5586 -115.8317 49° Northeast 377 434 14,800 -2,100 Descending Los Angeles Center
06:54PM 35.6036 -115.7800 43° Northeast 371 427 13,700 -1,500 Descending Los Angeles Center
06:54PM 35.6247 -115.7467 52° Northeast 371 427 13,300 -780 Descending Los Angeles Center
06:54PM 35.6611 -115.7061 42° Northeast 359 413 13,000 -300 Descending Los Angeles Center
06:55PM 35.7008 -115.6489 49° Northeast 336 387 13,000  Level Los Angeles Center
06:56PM 35.7306 -115.6178 40° Northeast 320 368 13,000  Level Los Angeles Center
06:56PM 35.7742 -115.5994 19° North 319 367 13,000  Level Los Angeles Center
06:57PM 35.8144 -115.5961 North 314 361 13,000  Level Los Angeles Center
06:57PM 35.8672 -115.5881 North 315 362 13,000  Level Los Angeles Center
06:58PM 35.9003 -115.5842 North 315 362 13,000  Level Los Angeles Center
06:58PM 35.9508 -115.5736 10° North 303 349 13,000 -300 Level Los Angeles Center
06:59PM 35.9894 -115.5578 18° North 270 311 12,700 -720 Descending Los Angeles Center
06:59PM 36.0064 -115.5200 61° Northeast 278 320 12,300 -900 Descending Los Angeles Center
07:00PM 36.0136 -115.4783 78° East 280 322 11,900 -900 Descending Los Angeles Center
07:00PM 36.0236 -115.4197 78° East 276 318 11,400 -1,020 Descending Los Angeles Center
07:01PM 36.0311 -115.3797 77° East 273 314 10,800 -1,080 Descending Los Angeles Center
07:01PM 36.0303 -115.3281 91° East 276 318 10,300 -1,020 Descending Los Angeles Center
07:02PM 36.0275 -115.2931 96° East 270 311 9,900 -900 Descending Los Angeles Center
07:02PM 36.0233 -115.2336 95° East 260 299 9,400 -720 Descending Los Angeles Center
07:03PM 36.0214 -115.2047 95° East 240 276 9,200 -780 Descending Los Angeles Center
07:03PM 36.0186 -115.1608 94° East 221 254 8,600 -1,140 Descending Los Angeles Center
07:04PM 36.0158 -115.1294 96° East 203 234 8,100 -600 Descending Los Angeles Center
07:04PM 36.0133 -115.0894 94° East 213 245 8,000 -420 Descending Los Angeles Center
07:05PM 36.0236 -115.0658 62° Northeast 207 238 7,700 -540 Descending Los Angeles Center
07:06PM 36.0500 -115.0422 36° Northeast 215 247 7,400 -600 Descending Los Angeles Center
07:06PM 36.0728 -115.0336 17° North 204 235 7,100 -1,500 Descending Los Angeles Center
07:07PM 36.1208 -115.0392 355° North 214 246 5,900 -1,320 Descending Los Angeles Center
07:07PM 36.1225 -115.0436 295° West 184 212 5,800 -1,800 Descending Los Angeles Center
07:08PM 36.1386 -115.0886 294° West 177 204 4,100 -1,800 Descending Los Angeles Center
07:08PM 36.1378 -115.0944 260° West 154 177 4,000 -1,260 Descending Los Angeles Center
07:09PM 36.1300 -115.1372 257° West 158 182 2,800 -1,200 Descending Los Angeles Center
07:09PM 36.1264 -115.1411 221° Southwest 144 166 2,800 -420 Level Los Angeles Center
07:10PM 36.0917 -115.1633 207° Southwest 150 173 2,400 -420 Descending Los Angeles Center
07:12PM 36.0801 -115.1523 118° Southeast  Level Estimated